Time;durP1;ratioP1;P1;durP2;ratioP2;P2;SDS_P1;SDS_P2;PMS_P1;PMS_P2;Temp;Humidity;BMP_temperature;BMP_pressure;BME280_temperature;BME280_humidity;BME280_pressure;Samples;Min_cycle;Max_cycle;Signal;HPM_P1;HPM_P2
2021/09/29 00:00:42;;;;;;;4.73;3.17;;;14.10;1.00;;;;;;5062162;28;20639;-51
2021/09/29 00:03:09;;;;;;;5.27;3.50;;;14.10;1.00;;;;;;5061029;28;20196;-51
2021/09/29 00:05:38;;;;;;;5.20;2.93;;;14.20;1.00;;;;;;5060180;28;20195;-51
2021/09/29 00:08:08;;;;;;;5.90;3.53;;;14.10;1.00;;;;;;5060573;28;20855;-51
2021/09/29 00:10:35;;;;;;;5.93;3.00;;;14.20;1.00;;;;;;5059728;28;20318;-51
2021/09/29 00:13:02;;;;;;;5.53;3.03;;;14.10;1.00;;;;;;5074484;28;20226;-51
2021/09/29 00:15:29;;;;;;;4.93;3.27;;;14.10;1.00;;;;;;5061141;28;20313;-51
2021/09/29 00:17:56;;;;;;;4.73;2.97;;;14.00;1.00;;;;;;5063045;28;20207;-51
2021/09/29 00:20:23;;;;;;;4.20;3.00;;;14.20;1.00;;;;;;5042866;28;20329;-51
2021/09/29 00:22:49;;;;;;;9.77;3.23;;;14.20;1.00;;;;;;5067361;28;20309;-51
2021/09/29 00:25:17;;;;;;;7.10;3.80;;;14.10;1.00;;;;;;5062227;28;20287;-51
2021/09/29 00:27:44;;;;;;;5.90;3.20;;;14.10;1.00;;;;;;5063835;28;20261;-51
2021/09/29 00:30:12;;;;;;;8.23;3.53;;;14.10;1.00;;;;;;5056785;28;20305;-51
2021/09/29 00:32:41;;;;;;;7.00;3.90;;;14.10;1.00;;;;;;5059044;28;20347;-51
2021/09/29 00:35:10;;;;;;;4.53;3.20;;;14.10;1.00;;;;;;5061732;28;20246;-51
2021/09/29 00:37:38;;;;;;;4.97;3.13;;;14.10;1.00;;;;;;5056262;28;20653;-51
2021/09/29 00:40:07;;;;;;;4.63;3.23;;;14.00;1.00;;;;;;5055724;28;20250;-51
2021/09/29 00:42:34;;;;;;;5.73;3.53;;;14.10;1.00;;;;;;5057592;28;20268;-51
2021/09/29 00:45:00;;;;;;;6.20;3.43;;;14.00;1.00;;;;;;5057657;28;20204;-51
2021/09/29 00:47:29;;;;;;;4.37;3.10;;;14.10;1.00;;;;;;5069558;28;20220;-51
2021/09/29 00:49:56;;;;;;;8.23;4.23;;;14.10;1.00;;;;;;5061063;28;20203;-51
2021/09/29 00:52:23;;;;;;;5.53;3.03;;;14.00;1.00;;;;;;5053563;28;20370;-51
2021/09/29 00:54:50;;;;;;;5.77;3.60;;;14.00;1.00;;;;;;5055785;28;20310;-50
2021/09/29 00:57:17;;;;;;;7.40;3.03;;;14.00;1.00;;;;;;5058044;28;20301;-50
2021/09/29 00:59:44;;;;;;;5.77;3.30;;;14.00;1.00;;;;;;5056663;28;20510;-50
2021/09/29 01:02:11;;;;;;;3.63;2.93;;;13.90;1.00;;;;;;5035697;28;20297;-50
2021/09/29 01:04:38;;;;;;;3.80;3.17;;;13.90;1.00;;;;;;5050908;28;20201;-50
2021/09/29 01:07:18;;;;;;;6.50;3.07;;;13.90;1.00;;;;;;5056263;28;20286;-50
2021/09/29 01:09:51;;;;;;;4.63;3.07;;;13.90;1.00;;;;;;5054056;28;20318;-50
2021/09/29 01:12:34;;;;;;;5.03;3.20;;;14.00;1.00;;;;;;5055426;28;20607;-50
2021/09/29 01:15:12;;;;;;;6.30;3.23;;;13.80;1.00;;;;;;5055350;28;20230;-50
2021/09/29 01:17:44;;;;;;;8.00;3.47;;;13.70;66.50;;;;;;5056491;28;20305;-50
2021/09/29 01:20:13;;;;;;;3.93;3.00;;;13.70;33.20;;;;;;5055389;28;20299;-50
2021/09/29 01:22:58;;;;;;;6.97;3.00;;;13.80;1.00;;;;;;5056462;28;20210;-50
2021/09/29 01:26:06;;;;;;;5.67;3.10;;;13.90;1.00;;;;;;5047819;28;20767;-50
2021/09/29 01:28:36;;;;;;;4.00;2.80;;;13.90;1.00;;;;;;4991913;28;20289;-50
2021/09/29 01:31:05;;;;;;;7.73;3.30;;;13.80;1.00;;;;;;5057698;28;20621;-50
2021/09/29 01:33:33;;;;;;;6.67;3.83;;;13.80;1.00;;;;;;5064236;28;20295;-50
2021/09/29 01:36:01;;;;;;;8.03;3.50;;;13.70;46.40;;;;;;5057752;28;20413;-50
2021/09/29 01:38:29;;;;;;;4.37;3.07;;;13.70;45.90;;;;;;5057685;28;20204;-50
2021/09/29 01:40:56;;;;;;;6.97;3.80;;;13.70;99.90;;;;;;5054655;28;20223;-50
2021/09/29 01:43:23;;;;;;;3.80;2.90;;;13.70;91.20;;;;;;5057396;28;20201;-50
2021/09/29 01:45:50;;;;;;;4.97;2.87;;;13.80;1.00;;;;;;5047225;28;20207;-50
2021/09/29 01:48:18;;;;;;;8.77;3.33;;;13.90;1.00;;;;;;5057733;28;20651;-50
2021/09/29 01:50:47;;;;;;;4.07;2.97;;;13.90;1.00;;;;;;5042589;28;20234;-50
2021/09/29 01:53:16;;;;;;;8.03;3.57;;;13.80;1.00;;;;;;5062140;28;20200;-50
2021/09/29 01:55:44;;;;;;;4.53;3.50;;;13.80;1.00;;;;;;5059856;28;20234;-50
2021/09/29 01:58:12;;;;;;;5.17;3.03;;;13.80;1.00;;;;;;5057547;28;20310;-50
2021/09/29 02:00:41;;;;;;;4.73;2.87;;;13.80;1.00;;;;;;5058853;28;20251;-50
2021/09/29 02:03:08;;;;;;;3.93;2.83;;;13.80;1.00;;;;;;5060074;28;20223;-50
2021/09/29 02:05:36;;;;;;;9.93;3.47;;;13.80;1.00;;;;;;5056868;28;20211;-50
2021/09/29 02:08:06;;;;;;;4.77;3.27;;;13.90;1.00;;;;;;5056812;28;20199;-50
2021/09/29 02:10:34;;;;;;;7.70;3.00;;;13.80;1.00;;;;;;5052839;28;20250;-50
2021/09/29 02:13:02;;;;;;;5.10;3.53;;;13.80;1.00;;;;;;5056603;28;20718;-50
2021/09/29 02:15:29;;;;;;;5.17;2.90;;;13.80;1.90;;;;;;5058908;28;20271;-50
2021/09/29 02:17:56;;;;;;;8.33;3.20;;;13.80;1.00;;;;;;5056433;28;20381;-50
2021/09/29 02:20:23;;;;;;;6.50;3.23;;;13.80;16.00;;;;;;5058784;28;20563;-50
2021/09/29 02:22:50;;;;;;;6.63;3.50;;;13.80;1.00;;;;;;5057685;28;20652;-50
2021/09/29 02:25:17;;;;;;;5.43;2.70;;;13.80;1.00;;;;;;5058818;28;20313;-50
2021/09/29 02:27:44;;;;;;;6.57;3.50;;;13.90;1.00;;;;;;5056544;28;20868;-50
2021/09/29 02:30:12;;;;;;;5.77;2.90;;;13.80;4.50;;;;;;5056693;28;20582;-50
2021/09/29 02:32:40;;;;;;;5.90;3.20;;;13.80;1.00;;;;;;5059391;28;20247;-50
2021/09/29 02:35:09;;;;;;;4.70;3.00;;;13.70;79.30;;;;;;5059368;28;20658;-50
2021/09/29 02:37:36;;;;;;;5.77;2.77;;;13.70;75.80;;;;;;5063662;28;20972;-50
2021/09/29 02:40:05;;;;;;;4.07;3.07;;;13.80;60.50;;;;;;5057861;28;20312;-50
2021/09/29 02:42:32;;;;;;;5.30;2.50;;;13.60;69.30;;;;;;5057009;28;20755;-50
2021/09/29 02:45:01;;;;;;;6.73;3.00;;;13.60;99.90;;;;;;5056703;28;20298;-50
2021/09/29 02:47:28;;;;;;;6.07;3.00;;;13.60;94.60;;;;;;5060637;28;20324;-50
2021/09/29 02:49:55;;;;;;;4.93;2.80;;;13.70;99.00;;;;;;5056747;28;20206;-50
2021/09/29 02:52:22;;;;;;;7.67;2.90;;;13.70;49.10;;;;;;5061170;28;20237;-49
2021/09/29 02:54:49;;;;;;;5.37;2.57;;;13.80;1.00;;;;;;5056916;28;20927;-50
2021/09/29 02:57:16;;;;;;;3.20;2.90;;;13.80;1.00;;;;;;5060707;28;20730;-50
2021/09/29 02:59:42;;;;;;;8.27;3.40;;;13.80;21.90;;;;;;5055884;28;20290;-50
2021/09/29 03:02:09;;;;;;;5.57;3.07;;;13.80;1.00;;;;;;5055680;28;20306;-50
2021/09/29 03:04:37;;;;;;;4.47;2.63;;;13.80;11.40;;;;;;5055951;28;20651;-50
2021/09/29 03:07:04;;;;;;;3.33;2.40;;;13.70;61.80;;;;;;5060317;28;20258;-50
2021/09/29 03:09:31;;;;;;;6.43;2.60;;;13.60;99.90;;;;;;5019686;28;20238;-50
2021/09/29 03:11:58;;;;;;;2.73;2.40;;;13.60;99.90;;;;;;5054372;28;20697;-50
2021/09/29 03:14:25;;;;;;;6.40;2.50;;;13.80;44.80;;;;;;5056556;28;20219;-50
2021/09/29 03:17:02;;;;;;;5.67;2.60;;;13.70;19.00;;;;;;5062544;28;20218;-50
2021/09/29 03:19:30;;;;;;;6.00;2.40;;;13.80;10.40;;;;;;5056880;28;20245;-50
2021/09/29 03:21:57;;;;;;;4.97;2.53;;;13.80;23.20;;;;;;5055412;28;20337;-50
2021/09/29 03:24:24;;;;;;;3.73;2.33;;;13.70;61.80;;;;;;5041062;28;20230;-50
2021/09/29 03:26:51;;;;;;;5.07;2.40;;;13.70;61.20;;;;;;5055482;28;20298;-50
2021/09/29 03:29:18;;;;;;;3.87;2.17;;;13.70;43.90;;;;;;5060936;28;20337;-50
2021/09/29 03:31:44;;;;;;;5.90;2.43;;;13.70;99.00;;;;;;5057639;28;20318;-52
2021/09/29 03:34:11;;;;;;;6.83;2.90;;;13.80;13.60;;;;;;5070497;28;20226;-50
2021/09/29 03:36:38;;;;;;;4.83;2.50;;;13.80;36.60;;;;;;5043648;28;20658;-50
2021/09/29 03:39:06;;;;;;;6.90;2.50;;;13.80;19.70;;;;;;5065639;28;20275;-50
2021/09/29 03:41:32;;;;;;;5.77;2.50;;;13.70;49.80;;;;;;5056999;28;20208;-50
2021/09/29 03:43:59;;;;;;;3.60;2.17;;;13.80;61.10;;;;;;5058141;28;20302;-50
2021/09/29 03:46:26;;;;;;;4.07;2.13;;;13.90;1.00;;;;;;5054682;28;20259;-50
2021/09/29 03:48:53;;;;;;;7.40;2.30;;;13.70;99.90;;;;;;5057440;28;20225;-50
2021/09/29 03:51:20;;;;;;;3.63;1.90;;;13.80;11.10;;;;;;5057009;28;20546;-50
2021/09/29 03:53:47;;;;;;;4.93;2.50;;;13.60;52.40;;;;;;5055065;28;20224;-50
2021/09/29 03:56:13;;;;;;;3.03;2.47;;;13.60;88.10;;;;;;5058453;28;20225;-50
2021/09/29 03:58:41;;;;;;;4.37;2.13;;;13.70;34.40;;;;;;5056403;28;20314;-50
2021/09/29 04:01:08;;;;;;;6.47;2.17;;;13.70;76.50;;;;;;5067510;28;20369;-50
2021/09/29 04:03:35;;;;;;;3.40;2.00;;;13.80;29.30;;;;;;5057014;28;20278;-50
2021/09/29 04:06:02;;;;;;;5.77;2.23;;;13.70;21.30;;;;;;5056230;28;20298;-50
2021/09/29 04:08:28;;;;;;;4.77;2.17;;;13.70;34.10;;;;;;5044373;28;20200;-50
2021/09/29 04:10:56;;;;;;;7.30;2.73;;;13.60;99.90;;;;;;5047307;28;20610;-50
2021/09/29 04:13:24;;;;;;;4.63;2.30;;;13.60;99.90;;;;;;5040066;28;20243;-50
2021/09/29 04:15:50;;;;;;;5.80;2.07;;;13.60;99.90;;;;;;5032521;28;20296;-50
2021/09/29 04:18:17;;;;;;;4.40;2.60;;;13.70;99.90;;;;;;5038283;28;20261;-49
2021/09/29 04:20:44;;;;;;;3.80;2.00;;;13.70;99.90;;;;;;5032313;28;20326;-50
2021/09/29 04:23:11;;;;;;;5.97;2.30;;;13.50;99.90;;;;;;5036122;28;20294;-50
2021/09/29 04:25:40;;;;;;;4.30;2.40;;;13.60;99.90;;;;;;5029841;28;20617;-50
2021/09/29 04:28:07;;;;;;;8.60;2.50;;;13.50;99.90;;;;;;5030750;28;20342;-50
2021/09/29 04:30:34;;;;;;;3.17;2.07;;;13.50;99.90;;;;;;5036896;28;20220;-50
2021/09/29 04:33:02;;;;;;;3.17;2.17;;;13.40;99.90;;;;;;5037414;28;20678;-50
2021/09/29 04:35:29;;;;;;;5.80;2.63;;;13.40;99.90;;;;;;5035619;28;20280;-50
2021/09/29 04:37:56;;;;;;;5.67;2.40;;;13.50;99.90;;;;;;5033899;28;20219;-50
2021/09/29 04:40:22;;;;;;;4.67;2.23;;;13.30;99.90;;;;;;5032092;28;20653;-50
2021/09/29 04:42:49;;;;;;;5.63;2.50;;;13.40;99.90;;;;;;5033549;28;20283;-50
2021/09/29 04:45:16;;;;;;;4.13;2.10;;;13.50;99.90;;;;;;5035938;28;20703;-50
2021/09/29 04:47:43;;;;;;;8.10;2.50;;;13.50;99.90;;;;;;5034997;28;20301;-50
2021/09/29 04:50:10;;;;;;;4.87;2.30;;;13.60;99.90;;;;;;5038141;28;20619;-50
2021/09/29 04:52:37;;;;;;;4.70;2.73;;;13.50;99.90;;;;;;5033333;28;20300;-50
2021/09/29 04:55:04;;;;;;;4.40;2.47;;;13.60;99.90;;;;;;5033020;28;20257;-50
2021/09/29 04:57:32;;;;;;;6.80;2.20;;;13.60;99.90;;;;;;5034195;28;20309;-50
2021/09/29 04:59:59;;;;;;;3.93;2.20;;;13.40;99.90;;;;;;5032544;28;20284;-50
2021/09/29 05:02:28;;;;;;;4.50;2.30;;;13.50;99.90;;;;;;5037192;28;20315;-49
2021/09/29 05:04:55;;;;;;;7.07;2.33;;;13.50;99.90;;;;;;5031964;28;20230;-50
2021/09/29 05:07:22;;;;;;;5.13;2.40;;;13.50;99.90;;;;;;5030039;28;20256;-50
2021/09/29 05:09:50;;;;;;;4.70;2.30;;;13.60;99.90;;;;;;5031412;28;20236;-50
2021/09/29 05:12:24;;;;;;;3.97;2.00;;;13.50;99.90;;;;;;5036880;28;20246;-50
2021/09/29 05:14:51;;;;;;;3.17;2.20;;;13.30;99.90;;;;;;5038195;28;20526;-49
2021/09/29 05:17:18;;;;;;;3.23;1.77;;;13.30;99.90;;;;;;5041342;28;20219;-50
2021/09/29 05:19:45;;;;;;;4.20;2.10;;;13.40;99.90;;;;;;5039349;28;20238;-50
2021/09/29 05:22:12;;;;;;;5.33;1.97;;;13.40;99.90;;;;;;5035308;28;20272;-50
2021/09/29 05:24:39;;;;;;;4.60;2.00;;;13.50;99.90;;;;;;5039783;28;20464;-50
2021/09/29 05:27:06;;;;;;;5.70;2.37;;;13.50;99.90;;;;;;5036463;28;20295;-50
2021/09/29 05:29:35;;;;;;;4.20;2.83;;;13.50;99.90;;;;;;5037040;28;20291;-51
2021/09/29 05:32:03;;;;;;;6.97;2.27;;;13.50;99.90;;;;;;5039036;28;20313;-50
2021/09/29 05:34:30;;;;;;;7.40;2.33;;;13.50;99.90;;;;;;5036835;28;20612;-50
2021/09/29 05:36:57;;;;;;;3.00;2.27;;;13.50;99.90;;;;;;5028185;28;20295;-51
2021/09/29 05:39:24;;;;;;;6.70;1.90;;;13.60;99.90;;;;;;5036751;28;20308;-50
2021/09/29 05:41:51;;;;;;;3.53;1.87;;;13.60;99.90;;;;;;5038136;28;21960;-50
2021/09/29 05:44:17;;;;;;;5.47;1.87;;;13.60;99.90;;;;;;5035768;28;20228;-51
2021/09/29 05:46:51;;;;;;;4.53;2.37;;;13.40;99.90;;;;;;5037002;28;20594;-50
2021/09/29 05:49:18;;;;;;;3.80;2.00;;;13.40;99.90;;;;;;5043334;28;20295;-50
2021/09/29 05:51:47;;;;;;;6.53;2.07;;;13.50;99.90;;;;;;5037320;28;20204;-51
2021/09/29 05:54:14;;;;;;;2.10;1.90;;;13.50;99.90;;;;;;5035612;28;20219;-51
2021/09/29 05:56:41;;;;;;;5.27;1.73;;;13.40;99.90;;;;;;5036844;28;20313;-51
2021/09/29 05:59:08;;;;;;;4.13;1.90;;;13.30;99.90;;;;;;5031219;28;20678;-51
2021/09/29 06:01:35;;;;;;;5.23;2.63;;;13.40;99.90;;;;;;5031218;28;20287;-51
2021/09/29 06:04:03;;;;;;;4.80;1.93;;;13.40;99.90;;;;;;5041203;28;20200;-51
2021/09/29 06:06:30;;;;;;;5.37;1.70;;;13.40;99.90;;;;;;5037902;28;20245;-51
2021/09/29 06:08:56;;;;;;;2.77;1.93;;;13.40;99.90;;;;;;5038406;28;20676;-51
2021/09/29 06:11:23;;;;;;;4.50;1.67;;;13.30;99.90;;;;;;5034258;28;20285;-51
2021/09/29 06:13:50;;;;;;;3.40;2.00;;;13.20;99.90;;;;;;5039747;28;20297;-51
2021/09/29 06:16:17;;;;;;;4.27;1.60;;;13.30;99.90;;;;;;5042970;28;20249;-51
2021/09/29 06:18:50;;;;;;;6.93;2.07;;;13.30;99.90;;;;;;5041021;28;20216;-51
2021/09/29 06:21:18;;;;;;;3.90;2.20;;;13.20;99.90;;;;;;5035049;28;20260;-51
2021/09/29 06:23:44;;;;;;;5.50;2.00;;;13.20;99.90;;;;;;5048058;28;20508;-51
2021/09/29 06:26:12;;;;;;;5.63;1.67;;;13.20;99.90;;;;;;5047537;28;20288;-50
2021/09/29 06:28:39;;;;;;;5.50;2.00;;;13.20;99.90;;;;;;5046099;28;20242;-51
2021/09/29 06:31:06;;;;;;;3.07;1.90;;;13.10;99.90;;;;;;5044383;28;20269;-51
2021/09/29 06:33:33;;;;;;;5.10;2.33;;;13.20;99.90;;;;;;5044222;28;20234;-51
2021/09/29 06:36:01;;;;;;;4.97;2.13;;;13.10;99.90;;;;;;5030482;28;20288;-51
2021/09/29 06:38:28;;;;;;;4.07;1.87;;;13.10;99.90;;;;;;5051949;28;20258;-51
2021/09/29 06:40:56;;;;;;;5.47;2.43;;;13.20;99.90;;;;;;5045441;28;20207;-51
2021/09/29 06:43:23;;;;;;;5.67;1.97;;;13.30;99.90;;;;;;5025323;28;20322;-51
2021/09/29 06:45:50;;;;;;;3.97;1.90;;;13.30;99.90;;;;;;5045274;28;20289;-51
2021/09/29 06:48:17;;;;;;;7.43;2.30;;;13.20;99.90;;;;;;5032988;28;20757;-51
2021/09/29 06:50:44;;;;;;;3.20;2.00;;;13.30;99.90;;;;;;5047866;28;20199;-51
2021/09/29 06:53:16;;;;;;;6.47;2.13;;;13.30;99.90;;;;;;5046919;28;20308;-51
2021/09/29 06:55:43;;;;;;;7.77;2.70;;;13.20;99.90;;;;;;5045427;28;20306;-51
2021/09/29 06:58:10;;;;;;;5.53;2.23;;;13.20;99.90;;;;;;5048187;28;20291;-51
2021/09/29 07:00:37;;;;;;;4.63;2.37;;;13.20;99.90;;;;;;5028235;28;20279;-51
2021/09/29 07:03:04;;;;;;;5.43;2.40;;;13.20;99.90;;;;;;5038720;28;20287;-51
2021/09/29 07:05:31;;;;;;;5.83;2.10;;;13.30;99.90;;;;;;5042112;28;20292;-51
2021/09/29 07:08:00;;;;;;;2.60;2.03;;;13.20;99.90;;;;;;5023670;28;20264;-51
2021/09/29 07:10:29;;;;;;;3.30;2.17;;;13.10;99.90;;;;;;5060217;28;20258;-51
2021/09/29 07:12:57;;;;;;;7.43;2.47;;;13.20;99.90;;;;;;5056784;28;20252;-51
2021/09/29 07:15:26;;;;;;;5.40;2.43;;;13.20;99.90;;;;;;5055799;28;20210;-51
2021/09/29 07:17:57;;;;;;;3.93;2.47;;;13.10;99.90;;;;;;5056641;28;20677;-51
2021/09/29 07:20:26;;;;;;;6.30;2.20;;;13.10;99.90;;;;;;5059064;28;20222;-51
2021/09/29 07:22:53;;;;;;;2.60;2.40;;;13.10;99.90;;;;;;5042088;28;20341;-51
2021/09/29 07:25:20;;;;;;;7.23;2.67;;;13.10;99.90;;;;;;5052041;28;20236;-51
2021/09/29 07:27:47;;;;;;;3.87;2.37;;;13.20;99.90;;;;;;5051396;28;20301;-51
2021/09/29 07:30:14;;;;;;;5.30;2.77;;;13.20;99.90;;;;;;5059150;28;20526;-51
2021/09/29 07:32:45;;;;;;;5.00;2.47;;;13.20;99.90;;;;;;5061817;28;20288;-51
2021/09/29 07:35:13;;;;;;;3.47;2.50;;;13.30;99.90;;;;;;5054247;28;20222;-52
2021/09/29 07:37:40;;;;;;;5.70;2.93;;;13.30;99.90;;;;;;5058375;28;20315;-51
2021/09/29 07:40:08;;;;;;;3.90;2.40;;;13.30;99.90;;;;;;5057683;28;20226;-51
2021/09/29 07:42:36;;;;;;;3.40;2.63;;;13.30;99.90;;;;;;5057940;28;20201;-51
2021/09/29 07:45:07;;;;;;;3.70;2.80;;;13.20;99.90;;;;;;5056843;28;20794;-52
2021/09/29 07:47:35;;;;;;;3.63;3.00;;;13.20;99.90;;;;;;5059800;28;20286;-52
2021/09/29 07:50:05;;;;;;;3.80;3.30;;;13.20;99.90;;;;;;5052137;28;20202;-51
2021/09/29 07:52:32;;;;;;;5.40;3.10;;;13.20;99.90;;;;;;5056049;28;20206;-51
2021/09/29 07:54:59;;;;;;;5.27;3.70;;;13.20;99.90;;;;;;5050131;28;20339;-51
2021/09/29 07:57:41;;;;;;;6.67;3.63;;;13.20;99.90;;;;;;5050505;28;20287;-52
2021/09/29 08:00:10;;;;;;;4.03;3.53;;;13.10;99.90;;;;;;5048748;28;20241;-52
2021/09/29 08:02:36;;;;;;;4.97;3.70;;;13.10;99.90;;;;;;5052455;28;20236;-52
2021/09/29 08:05:04;;;;;;;5.33;3.17;;;13.10;99.90;;;;;;5055583;28;20289;-52
2021/09/29 08:07:32;;;;;;;3.47;2.83;;;13.10;99.90;;;;;;5055522;28;20545;-51
2021/09/29 08:09:59;;;;;;;4.37;3.00;;;13.00;99.90;;;;;;5049716;28;20311;-51
2021/09/29 08:12:26;;;;;;;3.93;3.10;;;13.20;99.90;;;;;;5056561;28;20348;-52
2021/09/29 08:14:53;;;;;;;3.87;2.97;;;13.20;99.90;;;;;;5052577;28;20250;-51
2021/09/29 08:17:20;;;;;;;6.43;3.83;;;13.30;99.90;;;;;;5056697;28;20245;-52
2021/09/29 08:19:47;;;;;;;2.90;2.30;;;13.10;99.90;;;;;;5055742;28;20303;-51
2021/09/29 08:22:14;;;;;;;3.73;2.83;;;13.10;99.90;;;;;;5053776;28;20288;-51
2021/09/29 08:43:43;;;;;;;3.30;1.97;;;12.90;99.90;;;;;;5009491;28;20253;-51
2021/09/29 08:46:25;;;;;;;3.30;2.30;;;12.80;99.90;;;;;;5055765;28;20674;-51
2021/09/29 08:49:03;;;;;;;4.17;2.10;;;12.90;99.90;;;;;;5056045;28;20254;-51
2021/09/29 08:54:26;;;;;;;4.30;2.43;;;13.00;99.90;;;;;;5062431;28;20306;-51
2021/09/29 08:57:15;;;;;;;3.20;1.50;;;12.90;99.90;;;;;;5040659;28;20467;-51
2021/09/29 09:16:31;;;;;;;3.13;1.37;;;12.50;99.90;;;;;;5051989;28;20239;-51
2021/09/29 09:19:03;;;;;;;1.93;1.30;;;12.40;99.90;;;;;;5052109;28;21018;-52
2021/09/29 09:21:32;;;;;;;1.50;1.20;;;12.40;99.90;;;;;;5053080;28;20224;-51
2021/09/29 09:24:24;;;;;;;1.43;1.20;;;12.40;99.90;;;;;;5051466;28;20204;-51
2021/09/29 09:26:59;;;;;;;1.57;1.37;;;12.40;99.90;;;;;;5050704;28;20197;-51
2021/09/29 09:29:27;;;;;;;2.70;1.40;;;12.40;99.90;;;;;;5050340;28;20239;-51
2021/09/29 09:32:06;;;;;;;1.50;1.33;;;12.40;99.90;;;;;;5057609;28;20223;-52
2021/09/29 09:34:33;;;;;;;2.53;1.30;;;12.30;99.90;;;;;;5056013;28;20215;-51
2021/09/29 09:37:00;;;;;;;1.70;1.60;;;12.40;99.90;;;;;;5059966;28;20232;-51
2021/09/29 09:39:29;;;;;;;2.70;1.90;;;12.40;99.90;;;;;;5057006;28;22239;-51
2021/09/29 09:41:58;;;;;;;2.00;1.30;;;12.40;99.90;;;;;;5046560;28;20285;-51
2021/09/29 09:44:27;;;;;;;2.70;1.53;;;12.30;99.90;;;;;;5054028;28;20240;-51
2021/09/29 09:47:12;;;;;;;2.70;1.70;;;12.30;99.90;;;;;;5063227;28;20220;-51
2021/09/29 09:49:56;;;;;;;2.30;1.20;;;12.30;99.90;;;;;;5060051;28;20208;-51
2021/09/29 09:52:38;;;;;;;1.40;1.30;;;12.20;99.90;;;;;;5056361;28;20216;-51
2021/09/29 09:55:16;;;;;;;4.20;1.37;;;12.30;99.90;;;;;;5055621;28;20798;-51
2021/09/29 09:57:45;;;;;;;2.20;1.50;;;12.30;99.90;;;;;;5054870;28;20259;-51
2021/09/29 10:00:13;;;;;;;2.50;1.53;;;12.40;99.90;;;;;;5061837;28;20251;-51
2021/09/29 10:02:44;;;;;;;1.70;1.60;;;12.20;99.90;;;;;;5054632;28;20239;-51
2021/09/29 10:05:14;;;;;;;3.17;2.03;;;12.30;99.90;;;;;;5059920;28;20549;-51
2021/09/29 10:07:42;;;;;;;3.13;2.20;;;12.30;99.90;;;;;;5063998;28;20227;-51
2021/09/29 10:10:16;;;;;;;2.50;2.30;;;12.30;99.90;;;;;;5062712;28;20278;-51
2021/09/29 10:13:05;;;;;;;5.37;2.87;;;12.30;99.90;;;;;;5060897;28;20333;-51
2021/09/29 10:27:19;;;;;;;3.90;3.50;;;12.30;99.90;;;;;;5061959;28;20310;-51
2021/09/29 10:29:57;;;;;;;6.10;3.20;;;12.20;99.90;;;;;;5069955;28;20726;-51
2021/09/29 10:32:31;;;;;;;4.40;3.50;;;12.40;99.90;;;;;;5066374;28;20644;-51
2021/09/29 10:35:05;;;;;;;2.97;2.67;;;12.30;99.90;;;;;;5064863;28;20229;-51
2021/09/29 10:43:19;;;;;;;2.17;1.30;;;12.00;99.90;;;;;;5065131;28;20313;-51
2021/09/29 11:05:00;;;;;;;2.30;1.87;;;12.60;99.90;;;;;;5060440;28;20225;-51
2021/09/29 11:10:43;;;;;;;2.53;1.80;;;12.70;99.90;;;;;;5062182;28;20283;-51
2021/09/29 11:30:03;;;;;;;1.53;1.30;;;12.20;99.90;;;;;;5052199;28;20664;-51
2021/09/29 11:32:43;;;;;;;3.13;1.43;;;12.30;99.90;;;;;;5064797;28;20612;-51
2021/09/29 12:09:08;;;;;;;3.97;1.10;;;12.60;99.90;;;;;;5063673;28;20359;-50
2021/09/29 12:11:48;;;;;;;4.07;1.50;;;12.70;99.90;;;;;;5054989;28;20314;-51
2021/09/29 12:14:19;;;;;;;2.83;1.10;;;12.60;99.90;;;;;;5061172;28;20205;-51
2021/09/29 12:16:49;;;;;;;1.80;1.07;;;12.70;99.90;;;;;;5056838;28;20220;-50
2021/09/29 12:19:25;;;;;;;5.00;1.00;;;12.80;99.90;;;;;;5059200;28;20321;-50
2021/09/29 12:21:56;;;;;;;2.87;1.10;;;13.00;99.90;;;;;;5059204;28;20239;-50
2021/09/29 12:24:41;;;;;;;3.20;0.80;;;13.30;99.90;;;;;;5047931;28;20224;-51
2021/09/29 12:27:11;;;;;;;1.23;0.83;;;13.70;99.90;;;;;;5064141;28;20280;-51
2021/09/29 12:29:48;;;;;;;2.50;1.13;;;14.30;99.90;;;;;;5062615;28;20637;-51
2021/09/29 12:38:03;;;;;;;3.77;1.20;;;13.80;99.90;;;;;;5052641;28;20240;-51
2021/09/29 12:40:33;;;;;;;1.83;0.70;;;13.60;99.90;;;;;;5051962;28;20675;-51
2021/09/29 12:43:02;;;;;;;4.00;0.90;;;13.60;99.90;;;;;;5052211;28;20202;-51
2021/09/29 12:45:34;;;;;;;1.67;0.60;;;13.50;99.90;;;;;;5056443;28;20226;-51
2021/09/29 12:48:03;;;;;;;1.50;0.63;;;13.60;99.90;;;;;;5059943;28;20310;-51
2021/09/29 12:51:14;;;;;;;3.50;0.67;;;13.60;99.90;;;;;;5057215;28;20205;-51
2021/09/29 12:53:36;;;;;;;3.60;0.80;;;13.60;99.90;;;;;;5044844;28;20278;-51
2021/09/29 12:56:17;;;;;;;2.13;0.57;;;13.50;99.90;;;;;;5058450;28;20305;-51
2021/09/29 12:58:45;;;;;;;2.97;0.60;;;13.50;99.90;;;;;;5058196;28;20218;-51
2021/09/29 13:01:12;;;;;;;1.90;0.83;;;13.50;99.90;;;;;;5060754;28;20272;-51
2021/09/29 13:03:40;;;;;;;5.33;0.80;;;13.50;99.90;;;;;;5062685;28;20678;-51
2021/09/29 13:06:07;;;;;;;2.73;0.50;;;13.40;99.90;;;;;;5058266;28;20193;-51
2021/09/29 13:08:34;;;;;;;5.47;0.70;;;13.50;99.90;;;;;;5057238;28;20331;-51
2021/09/29 13:11:01;;;;;;;2.33;0.80;;;13.50;99.90;;;;;;5054482;28;20238;-51
2021/09/29 13:13:34;;;;;;;3.40;0.67;;;13.70;99.90;;;;;;5047488;28;20230;-51
2021/09/29 13:16:05;;;;;;;1.80;0.50;;;13.90;99.90;;;;;;5047828;28;20206;-51
2021/09/29 13:23:50;;;;;;;2.43;0.70;;;14.70;93.30;;;;;;5033235;28;20602;-51
2021/09/29 13:26:38;;;;;;;3.70;0.60;;;15.10;1.00;;;;;;5050989;28;20231;-51
2021/09/29 13:37:21;;;;;;;1.33;0.50;;;15.20;1.00;;;;;;5036183;28;20688;-51
2021/09/29 13:39:50;;;;;;;5.73;0.60;;;14.70;99.90;;;;;;5035545;28;20215;-51
2021/09/29 13:42:18;;;;;;;1.67;0.57;;;14.40;1.00;;;;;;5037247;28;20240;-51
2021/09/29 13:44:44;;;;;;;0.83;0.47;;;14.60;1.00;;;;;;5045796;28;20288;-50
2021/09/29 13:47:11;;;;;;;2.47;0.57;;;14.90;25.70;;;;;;5045199;28;20192;-51
2021/09/29 13:49:38;;;;;;;1.70;0.50;;;15.10;1.00;;;;;;5042003;28;20832;-51
2021/09/29 13:52:08;;;;;;;1.90;0.57;;;15.20;99.90;;;;;;5041255;28;20237;-52
2021/09/29 13:54:36;;;;;;;3.23;0.60;;;15.20;1.00;;;;;;5039156;28;20266;-51
2021/09/29 13:57:13;;;;;;;5.07;0.83;;;15.40;99.90;;;;;;5043912;28;20711;-51
2021/09/29 14:02:39;;;;;;;4.50;1.27;;;15.60;1.00;;;;;;5036794;28;20888;-51
2021/09/29 14:30:32;;;;;;;0.80;0.40;;;14.40;99.90;;;;;;4992884;28;20206;-50
2021/09/29 14:33:03;;;;;;;1.20;0.90;;;14.30;14.20;;;;;;4982795;28;20821;-50
2021/09/29 14:35:31;;;;;;;3.47;0.70;;;14.40;99.90;;;;;;5030551;28;20200;-51
2021/09/29 14:37:58;;;;;;;2.03;0.50;;;14.40;1.00;;;;;;5058935;28;20203;-50
2021/09/29 14:40:25;;;;;;;2.30;0.60;;;14.40;1.00;;;;;;5060879;28;20331;-50
2021/09/29 14:42:52;;;;;;;2.23;0.87;;;14.40;1.00;;;;;;5058630;28;20484;-50
2021/09/29 14:45:19;;;;;;;2.87;0.73;;;14.60;99.90;;;;;;5059935;28;20291;-51
2021/09/29 14:47:47;;;;;;;2.33;0.60;;;14.80;1.00;;;;;;5058809;28;20205;-51
2021/09/29 14:50:15;;;;;;;3.63;0.70;;;14.80;99.90;;;;;;5057750;28;20203;-51
2021/09/29 14:52:42;;;;;;;2.63;0.87;;;15.00;1.00;;;;;;5054649;28;20250;-51
2021/09/29 14:55:09;;;;;;;1.93;0.97;;;14.80;1.00;;;;;;5060390;28;20292;-51
2021/09/29 14:57:36;;;;;;;4.67;0.70;;;14.80;1.00;;;;;;5058480;28;20570;-51
2021/09/29 15:00:03;;;;;;;2.53;0.90;;;14.70;1.00;;;;;;5055226;28;20647;-51
2021/09/29 15:02:30;;;;;;;4.27;0.90;;;14.60;1.00;;;;;;5061316;28;20311;-51
2021/09/29 15:04:57;;;;;;;5.00;0.63;;;14.50;1.00;;;;;;5055948;28;20207;-51
2021/09/29 15:07:24;;;;;;;4.07;0.60;;;14.10;6.10;;;;;;5042734;28;20202;-51
2021/09/29 15:09:51;;;;;;;4.03;0.63;;;13.70;3.80;;;;;;5059334;28;20203;-51
2021/09/29 15:12:18;;;;;;;1.43;0.50;;;13.20;1.00;;;;;;5058968;28;20329;-51
2021/09/29 15:15:31;;;;;;;0.60;0.40;;;13.20;1.00;;;;;;5055727;28;20301;-51
2021/09/29 15:17:39;;;;;;;3.13;0.47;;;13.20;1.00;;;;;;5057595;28;20243;-51
2021/09/29 15:20:14;;;;;;;0.80;0.60;;;13.10;1.00;;;;;;5061037;28;20293;-51
2021/09/29 15:22:49;;;;;;;2.43;0.87;;;13.00;1.00;;;;;;5059225;28;20246;-51
2021/09/29 15:28:09;;;;;;;1.80;0.47;;;13.10;1.00;;;;;;5056168;28;20283;-51
2021/09/29 15:47:18;;;;;;;1.67;0.60;;;13.20;1.00;;;;;;5053591;28;20294;-51
2021/09/29 15:58:55;;;;;;;0.80;0.30;;;13.70;1.00;;;;;;5052869;28;20298;-51
2021/09/29 16:01:04;;;;;;;1.40;0.60;;;13.60;1.00;;;;;;5045713;28;20312;-51
2021/09/29 16:03:52;;;;;;;3.50;0.50;;;13.50;1.00;;;;;;5052653;28;20350;-51
2021/09/29 16:30:27;;;;;;;2.17;0.60;;;12.90;99.90;;;;;;5057136;28;20296;-50
2021/09/29 16:33:08;;;;;;;1.47;0.43;;;12.80;1.00;;;;;;5050651;28;20618;-51
2021/09/29 16:35:38;;;;;;;1.10;0.47;;;12.60;1.00;;;;;;5035376;28;20300;-50
2021/09/29 16:38:05;;;;;;;0.63;0.40;;;12.60;1.00;;;;;;5057168;28;20284;-50
2021/09/29 16:40:33;;;;;;;0.80;0.60;;;12.50;1.00;;;;;;5053068;28;20726;-50
2021/09/29 16:43:00;;;;;;;2.10;0.40;;;12.50;1.00;;;;;;5054260;28;20222;-51
2021/09/29 16:45:29;;;;;;;1.67;0.60;;;12.50;1.00;;;;;;5056011;28;20268;-50
2021/09/29 16:47:56;;;;;;;3.33;0.70;;;12.50;1.00;;;;;;5040284;28;20280;-50
2021/09/29 16:50:30;;;;;;;1.50;0.63;;;12.40;1.00;;;;;;5051997;28;20281;-50